Time;durP1;ratioP1;P1;durP2;ratioP2;P2;SDS_P1;SDS_P2;PMS_P1;PMS_P2;Temp;Humidity;BMP_temperature;BMP_pressure;BME280_temperature;BME280_humidity;BME280_pressure;Samples;Min_cycle;Max_cycle;Signal;HPM_P1;HPM_P2
2024/01/03 00:00:26;;;;;;;17.42;4.90;;;;;;;7.11;91.42;96703.19;4336262;33;20075;-79
2024/01/03 00:02:53;;;;;;;10.55;4.12;;;;;;;7.05;91.63;96713.75;4335806;33;20337;-79
2024/01/03 00:05:22;;;;;;;11.60;4.43;;;;;;;6.99;92.39;96738.87;4335943;33;20126;-79
2024/01/03 00:07:52;;;;;;;11.25;4.37;;;;;;;6.88;93.08;96742.78;4336073;33;20776;-79
2024/01/03 00:10:43;;;;;;;11.82;4.43;;;;;;;7.17;92.49;96750.78;4334987;33;20159;-79
2024/01/03 00:13:29;;;;;;;14.57;4.47;;;;;;;7.11;92.95;96754.47;4336051;33;20111;-79
2024/01/03 00:15:59;;;;;;;12.82;4.85;;;;;;;7.34;91.83;96737.97;4335564;33;20356;-79
2024/01/03 00:18:34;;;;;;;13.82;5.32;;;;;;;7.09;93.56;96740.91;4336000;33;20084;-79
2024/01/03 00:21:10;;;;;;;11.68;4.85;;;;;;;6.95;94.90;96733.06;4336089;33;20083;-79
2024/01/03 00:23:38;;;;;;;11.38;4.30;;;;;;;7.04;95.37;96724.09;4335680;33;20155;-79
2024/01/03 00:26:09;;;;;;;11.80;4.47;;;;;;;6.99;95.48;96706.38;4335893;33;20099;-79
2024/01/03 00:28:36;;;;;;;13.25;4.85;;;;;;;7.01;95.33;96703.72;4334866;33;20083;-79
2024/01/03 00:31:03;;;;;;;12.82;4.30;;;;;;;7.11;94.95;96692.91;4334320;33;20087;-79
2024/01/03 00:33:30;;;;;;;11.27;3.85;;;;;;;7.19;94.34;96689.97;4336064;33;20123;-80
2024/01/03 00:35:57;;;;;;;11.43;4.10;;;;;;;7.20;94.09;96682.19;4334287;33;20174;-79
2024/01/03 00:38:24;;;;;;;10.10;3.62;;;;;;;7.28;93.45;96679.25;4335512;33;20087;-79
2024/01/03 00:40:54;;;;;;;;;;;;;;;7.51;92.26;96698.59;4335809;33;20098;-80
2024/01/03 00:43:21;;;;;;;10.85;3.58;;;;;;;7.41;92.21;96717.94;4335546;33;19967;-79
2024/01/03 00:45:49;;;;;;;9.25;3.33;;;;;;;7.31;93.28;96732.13;4335632;33;20119;-80
2024/01/03 00:48:16;;;;;;;12.02;3.60;;;;;;;7.42;93.13;96732.41;4334794;33;20105;-79
2024/01/03 00:50:43;;;;;;;9.30;3.75;;;;;;;7.52;92.70;96738.75;4335475;33;20130;-79
2024/01/03 00:53:12;;;;;;;9.00;3.15;;;;;;;7.41;93.64;96743.59;4335852;33;20486;-79
2024/01/03 00:55:40;;;;;;;8.35;3.08;;;;;;;7.52;93.44;96754.13;4335536;33;20100;-79
2024/01/03 00:58:07;;;;;;;8.90;3.15;;;;;;;7.52;93.43;96770.37;4335408;33;20427;-79
2024/01/03 01:00:36;;;;;;;8.52;2.90;;;;;;;7.64;93.29;96778.34;4334630;33;20131;-79
2024/01/03 01:03:04;;;;;;;9.73;2.80;;;;;;;7.69;92.80;96779.78;4335749;33;20118;-79
2024/01/03 01:05:32;;;;;;;8.38;2.67;;;;;;;7.94;91.78;96775.94;4335209;33;20122;-80
2024/01/03 01:07:59;;;;;;;6.72;2.60;;;;;;;8.07;90.85;96761.53;4335637;33;20088;-80
2024/01/03 01:10:26;;;;;;;9.77;2.35;;;;;;;7.99;91.36;96750.88;4335724;33;20064;-79
2024/01/03 01:12:53;;;;;;;;;;;;;;;8.28;90.07;96744.97;4335642;33;20106;-79
2024/01/03 01:15:20;;;;;;;6.60;2.53;;;;;;;8.09;90.46;96746.91;4335535;33;19975;-79
2024/01/03 01:17:47;;;;;;;;;;;;;;;8.12;90.79;96757.81;4335950;33;20095;-80
2024/01/03 01:20:14;;;;;;;5.55;2.10;;;;;;;8.05;91.50;96766.75;4335396;33;19986;-80
2024/01/03 01:22:41;;;;;;;6.07;2.25;;;;;;;8.02;91.24;96769.50;4335677;33;20114;-79
2024/01/03 01:25:08;;;;;;;10.40;2.67;;;;;;;7.61;93.73;96756.25;4335125;33;20118;-79
2024/01/03 01:27:35;;;;;;;;;;;;;;;7.95;92.59;96734.75;4335979;33;20536;-79
2024/01/03 01:30:02;;;;;;;11.43;2.72;;;;;;;7.87;92.96;96736.94;4335607;33;19986;-79
2024/01/03 01:32:29;;;;;;;5.45;1.98;;;;;;;7.75;93.41;96735.81;4334886;33;20150;-79
2024/01/03 01:34:56;;;;;;;6.75;2.30;;;;;;;8.10;91.23;96741.66;4335531;33;20100;-79
2024/01/03 01:37:23;;;;;;;7.20;2.22;;;;;;;8.15;91.34;96746.56;4335398;33;20163;-79
2024/01/03 01:39:50;;;;;;;5.68;2.00;;;;;;;8.11;91.09;96747.63;4335124;33;20481;-79
2024/01/03 01:42:17;;;;;;;7.68;2.50;;;;;;;8.15;91.87;96758.56;4335611;33;20123;-79
2024/01/03 01:44:43;;;;;;;;;;;;;;;8.19;91.26;96752.34;4335768;33;20107;-79
2024/01/03 01:47:11;;;;;;;7.20;2.00;;;;;;;8.00;92.63;96760.22;4335102;33;19983;-79
2024/01/03 01:49:39;;;;;;;5.00;1.98;;;;;;;8.18;92.27;96748.94;4335417;33;20146;-79
2024/01/03 01:52:10;;;;;;;7.05;2.00;;;;;;;8.20;92.52;96736.03;4335285;33;20163;-79
2024/01/03 01:54:37;;;;;;;7.45;1.80;;;;;;;8.18;93.17;96735.28;4334034;33;20511;-79
2024/01/03 01:57:04;;;;;;;5.20;1.70;;;;;;;8.20;93.59;96731.72;4346055;33;20118;-80
2024/01/03 01:59:31;;;;;;;8.40;2.10;;;;;;;8.23;93.85;96721.28;4335426;33;20080;-80
2024/01/03 02:01:58;;;;;;;7.97;1.95;;;;;;;8.44;92.85;96728.75;4335021;33;20092;-79
2024/01/03 02:04:25;;;;;;;3.95;1.50;;;;;;;8.39;93.24;96729.81;4334186;33;20123;-79
2024/01/03 02:06:52;;;;;;;4.62;1.58;;;;;;;8.39;93.46;96739.28;4335149;33;20114;-80
2024/01/03 02:09:19;;;;;;;4.78;1.60;;;;;;;8.45;93.42;96728.69;4334930;33;20213;-79
2024/01/03 02:11:46;;;;;;;3.35;1.55;;;;;;;8.50;93.53;96723.25;4335188;33;20087;-79
2024/01/03 02:14:13;;;;;;;5.87;1.83;;;;;;;8.59;93.77;96728.72;4334957;33;20111;-80
2024/01/03 02:16:40;;;;;;;5.15;1.70;;;;;;;8.97;91.32;96736.03;4335052;33;20431;-79
2024/01/03 02:19:07;;;;;;;4.43;1.90;;;;;;;8.87;92.21;96722.03;4335358;33;20507;-79
2024/01/03 02:21:34;;;;;;;8.13;2.00;;;;;;;8.94;91.90;96731.91;4334686;33;20091;-79
2024/01/03 02:24:01;;;;;;;;;;;;;;;8.87;92.37;96727.19;4334268;33;20154;-79
2024/01/03 02:26:27;;;;;;;7.35;1.73;;;;;;;9.11;91.22;96737.81;4335131;33;20006;-79
2024/01/03 02:28:56;;;;;;;6.15;1.73;;;;;;;9.08;90.89;96717.41;4334911;33;20079;-79
2024/01/03 02:31:23;;;;;;;4.72;1.55;;;;;;;8.82;92.36;96719.72;4334938;33;20171;-80
2024/01/03 02:33:50;;;;;;;6.37;1.85;;;;;;;8.68;93.74;96711.97;4333858;33;20103;-80
2024/01/03 02:36:17;;;;;;;6.75;1.90;;;;;;;8.73;93.83;96716.87;4334536;33;20114;-79
2024/01/03 02:38:48;;;;;;;4.05;1.60;;;;;;;8.63;94.29;96709.66;4333941;33;20088;-80
2024/01/03 02:41:15;;;;;;;4.03;1.80;;;;;;;8.47;95.34;96715.72;4333891;33;20127;-79
2024/01/03 02:43:42;;;;;;;3.58;1.60;;;;;;;8.47;95.24;96711.41;4334595;33;20443;-79
2024/01/03 02:46:09;;;;;;;6.45;1.55;;;;;;;8.43;96.46;96706.53;4334688;33;20151;-79
2024/01/03 02:48:40;;;;;;;5.37;1.55;;;;;;;8.49;96.24;96690.75;4334968;33;20506;-79
2024/01/03 02:51:07;;;;;;;3.72;1.40;;;;;;;8.44;96.70;96706.47;4334454;33;20099;-80
2024/01/03 02:53:34;;;;;;;4.50;1.50;;;;;;;8.68;95.50;96706.81;4334799;33;20088;-80
2024/01/03 02:56:01;;;;;;;5.05;1.62;;;;;;;9.04;93.12;96715.91;4334680;33;20143;-79
2024/01/03 02:58:27;;;;;;;;;;;;;;;9.02;92.65;96716.00;4334717;33;20463;-80
2024/01/03 03:00:54;;;;;;;3.78;1.30;;;;;;;9.15;92.18;96711.84;4334762;33;20038;-80
2024/01/03 03:03:21;;;;;;;3.65;1.37;;;;;;;9.45;89.94;96718.66;4335638;33;20099;-80
2024/01/03 03:05:48;;;;;;;4.45;1.50;;;;;;;9.34;90.19;96726.19;4336334;33;20521;-79
2024/01/03 03:08:15;;;;;;;4.93;1.80;;;;;;;9.37;89.77;96744.88;4336689;33;20075;-79
2024/01/03 03:10:42;;;;;;;5.30;1.67;;;;;;;9.42;89.59;96745.41;4334957;33;20163;-80
2024/01/03 03:13:09;;;;;;;3.87;1.50;;;;;;;9.54;88.59;96749.00;4336539;33;20103;-80
2024/01/03 03:15:35;;;;;;;;;;;;;;;9.83;87.07;96749.84;4336635;33;20155;-80
2024/01/03 03:18:02;;;;;;;4.43;1.60;;;;;;;9.91;86.27;96752.81;4336204;33;19969;-80
2024/01/03 03:20:29;;;;;;;3.92;1.37;;;;;;;10.11;85.32;96754.16;4336478;33;20151;-80
2024/01/03 03:22:56;;;;;;;3.10;1.40;;;;;;;10.20;84.83;96747.59;4336430;33;20104;-80
2024/01/03 03:25:24;;;;;;;7.05;1.60;;;;;;;9.97;86.45;96744.69;4335893;33;20099;-80
2024/01/03 03:27:51;;;;;;;3.80;1.50;;;;;;;9.97;85.61;96739.53;4336413;33;20076;-80
2024/01/03 03:30:18;;;;;;;5.70;1.60;;;;;;;10.08;85.57;96734.53;4336431;33;20095;-80
2024/01/03 03:32:46;;;;;;;4.12;1.40;;;;;;;9.84;86.19;96733.47;4335858;33;20158;-80
2024/01/03 03:35:14;;;;;;;2.33;1.17;;;;;;;10.26;84.74;96732.63;4336125;33;20091;-79
2024/01/03 03:37:41;;;;;;;4.78;1.30;;;;;;;10.48;83.29;96739.84;4336210;33;20084;-80
2024/01/03 03:40:08;;;;;;;4.30;1.70;;;;;;;9.62;87.51;96733.09;4335932;33;20156;-79
2024/01/03 03:42:35;;;;;;;4.45;1.75;;;;;;;9.23;90.83;96731.94;4336389;33;20095;-80
2024/01/03 03:45:02;;;;;;;4.15;1.45;;;;;;;9.17;91.17;96722.03;4336054;33;20114;-79
2024/01/03 03:47:29;;;;;;;3.80;1.30;;;;;;;9.05;92.82;96720.19;4335947;33;20080;-79
2024/01/03 03:49:56;;;;;;;3.35;1.20;;;;;;;8.97;94.21;96721.44;4336222;33;20120;-79
2024/01/03 03:52:22;;;;;;;5.53;1.83;;;;;;;8.79;95.84;96717.31;4336208;33;20118;-79
2024/01/03 03:54:49;;;;;;;;;;;;;;;8.53;96.96;96721.38;4336443;33;20114;-79
2024/01/03 03:57:16;;;;;;;5.30;1.42;;;;;;;8.38;99.59;96715.31;4336086;33;19989;-79
2024/01/03 03:59:43;;;;;;;3.45;1.30;;;;;;;8.38;99.64;96707.59;4335738;33;20139;-79
2024/01/03 04:02:10;;;;;;;3.87;1.33;;;;;;;8.44;99.58;96695.34;4336137;33;20522;-79
2024/01/03 04:04:36;;;;;;;;;;;;;;;8.58;98.83;96709.06;4336346;33;20095;-79
2024/01/03 04:07:03;;;;;;;3.85;1.42;;;;;;;8.64;97.84;96713.88;4335781;33;20345;-79
2024/01/03 04:09:30;;;;;;;3.97;1.50;;;;;;;8.72;97.83;96725.47;4336199;33;20494;-79
2024/01/03 04:11:57;;;;;;;4.43;1.40;;;;;;;8.85;97.17;96719.56;4336147;33;20100;-79
2024/01/03 04:14:25;;;;;;;3.10;1.30;;;;;;;9.04;95.34;96723.63;4335582;33;20118;-80
2024/01/03 04:16:52;;;;;;;1.92;1.10;;;;;;;9.06;95.21;96716.69;4335867;33;20083;-79
2024/01/03 04:19:18;;;;;;;;;;;;;;;9.21;94.16;96721.75;4336461;33;20092;-79
2024/01/03 04:21:45;;;;;;;7.10;1.55;;;;;;;8.98;96.06;96725.66;4335808;33;20018;-79
2024/01/03 04:24:12;;;;;;;;;;;;;;;9.08;95.29;96718.25;4336186;33;20087;-79
2024/01/03 04:26:39;;;;;;;2.70;1.10;;;;;;;9.18;94.58;96731.41;4335848;33;20486;-80
2024/01/03 04:29:07;;;;;;;2.45;1.27;;;;;;;8.90;96.14;96724.44;4335700;33;20095;-79
2024/01/03 04:31:34;;;;;;;2.90;1.30;;;;;;;8.78;96.68;96738.00;4335744;33;20106;-79
2024/01/03 04:34:01;;;;;;;;;;;;;;;8.97;96.45;96736.03;4336165;33;20106;-79
2024/01/03 04:36:28;;;;;;;2.97;1.10;;;;;;;8.95;96.40;96748.16;4335478;33;19979;-79
2024/01/03 04:38:55;;;;;;;2.28;1.12;;;;;;;8.83;97.14;96738.59;4335926;33;20455;-79
2024/01/03 04:41:22;;;;;;;3.55;1.20;;;;;;;8.96;97.33;96731.81;4335942;33;20132;-79
2024/01/03 04:43:49;;;;;;;5.70;1.30;;;;;;;9.11;96.04;96742.97;4335492;33;20083;-79
2024/01/03 04:46:15;;;;;;;3.90;1.20;;;;;;;9.01;96.64;96744.41;4335645;33;20083;-79
2024/01/03 04:48:42;;;;;;;;;;;;;;;8.95;96.92;96738.72;4335906;33;20131;-79
2024/01/03 04:51:09;;;;;;;3.33;1.30;;;;;;;8.77;98.50;96741.47;4335975;33;19975;-80
2024/01/03 04:53:37;;;;;;;3.42;1.50;;;;;;;8.84;98.10;96751.34;4335737;33;20095;-79
2024/01/03 04:56:05;;;;;;;2.53;1.00;;;;;;;8.91;98.35;96750.06;4335323;33;20083;-79
2024/01/03 04:58:32;;;;;;;4.87;1.40;;;;;;;9.00;97.46;96748.72;4335746;33;20091;-79
2024/01/03 05:00:58;;;;;;;3.72;0.98;;;;;;;9.08;96.81;96750.88;4334661;33;20107;-79
2024/01/03 05:03:26;;;;;;;2.72;1.00;;;;;;;9.10;96.84;96747.28;4335444;33;20091;-79
2024/01/03 05:05:53;;;;;;;2.62;1.10;;;;;;;9.15;96.68;96757.31;4335530;33;20440;-80
2024/01/03 05:08:20;;;;;;;2.22;1.10;;;;;;;9.11;97.36;96746.34;4335766;33;20482;-79
2024/01/03 05:10:47;;;;;;;3.87;1.10;;;;;;;9.06;97.35;96753.53;4335443;33;20087;-79
2024/01/03 05:13:14;;;;;;;3.05;1.00;;;;;;;8.87;98.39;96748.59;4335678;33;20083;-80
2024/01/03 05:15:40;;;;;;;;;;;;;;;8.97;98.18;96752.31;4335761;33;20147;-80
2024/01/03 05:18:07;;;;;;;2.47;1.02;;;;;;;9.07;97.55;96749.22;4334199;33;20390;-79
2024/01/03 05:20:35;;;;;;;3.62;1.10;;;;;;;9.25;96.14;96754.13;4334440;33;20393;-79
2024/01/03 05:23:02;;;;;;;3.80;1.30;;;;;;;9.13;96.94;96765.09;4335693;33;20142;-79
2024/01/03 05:25:29;;;;;;;2.97;1.12;;;;;;;9.23;96.24;96773.12;4334452;33;20138;-79
2024/01/03 05:27:55;;;;;;;1.62;1.10;;;;;;;9.03;97.38;96763.16;4335572;33;20100;-79
2024/01/03 05:30:22;;;;;;;3.00;1.05;;;;;;;9.08;97.21;96764.56;4335618;33;20091;-79
2024/01/03 05:32:49;;;;;;;2.37;1.12;;;;;;;9.03;97.46;96766.53;4335185;33;20413;-79
2024/01/03 05:35:17;;;;;;;2.50;1.20;;;;;;;8.87;98.36;96758.88;4335316;33;20428;-79
2024/01/03 05:37:44;;;;;;;2.37;1.05;;;;;;;8.92;98.13;96767.16;4335128;33;20164;-79
2024/01/03 05:40:11;;;;;;;;;;;;;;;9.14;97.15;96761.63;4335873;33;20104;-80
2024/01/03 05:42:38;;;;;;;3.15;1.20;;;;;;;9.27;95.74;96752.28;4335568;33;20066;-79
2024/01/03 05:45:05;;;;;;;1.48;0.80;;;;;;;9.13;96.67;96754.81;4334959;33;20087;-79
2024/01/03 05:47:32;;;;;;;4.10;1.10;;;;;;;9.21;96.01;96760.34;4335564;33;20112;-79
2024/01/03 05:49:59;;;;;;;3.05;1.10;;;;;;;9.28;95.44;96758.28;4334351;33;20125;-79
2024/01/03 05:52:26;;;;;;;7.12;1.30;;;;;;;9.04;96.57;96755.38;4335238;33;20075;-79
2024/01/03 05:54:54;;;;;;;;;;;;;;;9.06;96.99;96758.69;4335635;33;20080;-79
2024/01/03 05:57:21;;;;;;;5.25;1.00;;;;;;;8.97;97.39;96761.75;4335323;33;20320;-79
2024/01/03 05:59:48;;;;;;;3.87;1.33;;;;;;;8.83;98.15;96754.84;4335072;33;20114;-79
2024/01/03 06:02:15;;;;;;;3.67;1.42;;;;;;;8.81;98.50;96760.97;4335349;33;20117;-79
2024/01/03 06:04:43;;;;;;;4.25;0.98;;;;;;;8.79;98.87;96761.03;4335300;33;20118;-79
2024/01/03 06:07:10;;;;;;;2.95;1.10;;;;;;;8.75;98.95;96764.72;4333745;33;20353;-79
2024/01/03 06:09:37;;;;;;;1.55;1.08;;;;;;;8.92;97.82;96768.91;4335429;33;20121;-79
2024/01/03 06:12:04;;;;;;;1.20;0.90;;;;;;;8.92;97.21;96766.31;4335329;33;20150;-79
2024/01/03 06:14:31;;;;;;;2.87;1.17;;;;;;;9.14;95.69;96771.91;4334857;33;20439;-80
2024/01/03 06:16:58;;;;;;;3.15;1.02;;;;;;;9.21;94.68;96770.66;4335062;33;20119;-80
2024/01/03 06:19:25;;;;;;;;;;;;;;;9.15;94.61;96765.88;4335456;33;20506;-80
2024/01/03 06:21:51;;;;;;;5.85;1.10;;;;;;;9.01;95.55;96754.69;4334968;33;19990;-80
2024/01/03 06:24:18;;;;;;;;;;;;;;;8.87;96.56;96751.16;4335410;33;20084;-79
2024/01/03 06:26:45;;;;;;;2.37;1.23;;;;;;;8.90;96.32;96761.28;4334965;33;19980;-80
2024/01/03 06:29:12;;;;;;;5.18;1.37;;;;;;;8.93;96.26;96755.13;4330293;33;162117;-79
2024/01/03 06:31:39;;;;;;;4.57;1.30;;;;;;;8.89;95.98;96759.63;4334884;33;20101;-80
2024/01/03 06:34:06;;;;;;;4.75;1.25;;;;;;;9.03;95.35;96765.72;4334720;33;20101;-79
2024/01/03 06:36:33;;;;;;;3.03;1.15;;;;;;;9.05;95.43;96754.44;4333955;33;20151;-80
2024/01/03 06:38:59;;;;;;;3.30;1.00;;;;;;;9.07;95.26;96755.19;4334643;33;20095;-80
2024/01/03 06:41:27;;;;;;;1.98;1.00;;;;;;;9.13;94.93;96746.28;4334863;33;20474;-80
2024/01/03 06:43:53;;;;;;;4.78;1.10;;;;;;;9.25;93.82;96748.13;4337104;33;20490;-80
2024/01/03 06:46:20;;;;;;;;;;;;;;;9.27;93.03;96746.31;4336905;33;20107;-81
2024/01/03 06:48:47;;;;;;;3.90;1.33;;;;;;;9.33;92.59;96758.00;4335444;33;20327;-81
2024/01/03 06:51:20;;;;;;;2.47;1.10;;;;;;;9.36;92.51;96766.38;4334868;33;20096;-81
2024/01/03 06:53:47;;;;;;;3.78;1.30;;;;;;;9.33;92.85;96752.84;4334938;33;20076;-80
2024/01/03 06:56:19;;;;;;;4.35;1.30;;;;;;;9.32;92.57;96761.47;4334578;33;20170;-81
2024/01/03 06:58:46;;;;;;;5.30;1.40;;;;;;;9.35;92.92;96767.28;4334779;33;20099;-82
2024/01/03 07:01:12;;;;;;;2.10;1.08;;;;;;;9.28;92.64;96756.53;4335201;33;20472;-82
2024/01/03 07:03:39;;;;;;;;;;;;;;;9.30;92.69;96753.84;4334704;33;20092;-83
2024/01/03 07:06:06;;;;;;;5.28;1.30;;;;;;;9.53;91.52;96766.19;4335084;33;20031;-83
2024/01/03 07:08:33;;;;;;;3.25;1.10;;;;;;;9.47;91.17;96764.00;4334883;33;20130;-82
2024/01/03 07:11:00;;;;;;;2.15;1.12;;;;;;;9.30;92.54;96750.44;4334783;33;20083;-81
2024/01/03 07:13:27;;;;;;;3.08;1.25;;;;;;;9.50;91.87;96763.00;4333906;33;20447;-81
2024/01/03 07:15:53;;;;;;;;;;;;;;;9.70;89.69;96761.81;4335372;33;20104;-79
2024/01/03 07:18:20;;;;;;;2.17;1.25;;;;;;;9.77;89.43;96758.75;4337087;33;19983;-80
2024/01/03 07:20:47;;;;;;;3.22;1.45;;;;;;;9.73;89.81;96774.50;4335628;33;20151;-78
2024/01/03 07:23:14;;;;;;;4.07;1.40;;;;;;;9.73;89.62;96785.63;4333098;33;20122;-77
2024/01/03 07:25:41;;;;;;;2.72;1.37;;;;;;;9.46;91.18;96792.37;4334257;33;20104;-78
2024/01/03 07:28:08;;;;;;;4.53;1.60;;;;;;;9.41;91.28;96787.53;4334469;33;20134;-79
2024/01/03 07:30:36;;;;;;;4.95;1.52;;;;;;;9.37;91.61;96792.94;4336902;33;20092;-82
2024/01/03 07:33:04;;;;;;;3.60;1.40;;;;;;;9.45;91.04;96813.91;4338501;33;20072;-82
2024/01/03 07:35:38;;;;;;;3.12;1.20;;;;;;;9.45;90.63;96801.84;4340471;33;20088;-82
2024/01/03 07:38:06;;;;;;;3.00;1.15;;;;;;;9.63;89.39;96801.72;4342008;33;20072;-83
2024/01/03 07:40:33;;;;;;;3.60;1.35;;;;;;;9.58;89.88;96802.00;4335344;33;20473;-80
2024/01/03 07:43:01;;;;;;;2.85;1.20;;;;;;;9.64;89.84;96805.94;4334550;33;20525;-81
2024/01/03 07:45:28;;;;;;;3.33;1.30;;;;;;;9.83;88.62;96817.66;4333890;33;20126;-81
2024/01/03 07:47:55;;;;;;;3.35;1.27;;;;;;;9.80;88.55;96815.28;4334236;33;20100;-80
2024/01/03 07:50:22;;;;;;;4.10;1.33;;;;;;;9.54;89.37;96821.94;4336383;33;20102;-80
2024/01/03 07:52:48;;;;;;;5.18;1.58;;;;;;;9.32;91.23;96824.09;4336160;33;20419;-80
2024/01/03 07:55:15;;;;;;;3.30;1.20;;;;;;;9.36;90.76;96830.72;4336533;33;20107;-84
2024/01/03 07:57:42;;;;;;;;;;;;;;;9.38;90.80;96825.50;4336568;33;20413;-84
2024/01/03 08:00:10;;;;;;;3.35;1.20;;;;;;;9.39;90.67;96833.13;4336354;33;20596;-85
2024/01/03 08:02:37;;;;;;;1.48;1.00;;;;;;;9.49;89.91;96831.69;4336617;33;20115;-84
2024/01/03 08:05:07;;;;;;;3.78;1.20;;;;;;;9.45;89.82;96827.59;4335755;33;20404;-82
2024/01/03 08:07:33;;;;;;;3.72;1.35;;;;;;;9.63;89.12;96835.19;4336347;33;20743;-85
2024/01/03 08:10:00;;;;;;;;;;;;;;;9.66;88.76;96838.41;4336552;33;20204;-84
2024/01/03 08:12:27;;;;;;;2.87;1.10;;;;;;;9.76;87.98;96833.56;4336100;33;20031;-84
2024/01/03 08:14:54;;;;;;;4.22;1.10;;;;;;;9.78;87.77;96835.16;4336322;33;20741;-83
2024/01/03 08:17:21;;;;;;;4.40;1.17;;;;;;;10.00;86.62;96842.44;4336187;33;20104;-84
2024/01/03 08:19:48;;;;;;;5.12;1.40;;;;;;;10.07;85.82;96841.12;4336662;33;20103;-83
2024/01/03 08:22:16;;;;;;;4.62;1.30;;;;;;;10.09;86.06;96835.88;4336068;33;20139;-84
2024/01/03 08:24:44;;;;;;;5.65;1.50;;;;;;;10.14;86.27;96818.41;4336194;33;20096;-84
2024/01/03 08:27:11;;;;;;;4.22;1.20;;;;;;;10.11;86.24;96819.44;4340106;33;20171;-84
2024/01/03 08:29:39;;;;;;;3.28;1.15;;;;;;;9.99;86.60;96791.78;4338579;33;20147;-84
2024/01/03 08:32:06;;;;;;;4.00;1.20;;;;;;;10.11;86.29;96793.66;4337028;33;20080;-84
2024/01/03 08:34:33;;;;;;;2.20;1.00;;;;;;;9.92;86.95;96790.53;4337024;33;20116;-84
2024/01/03 08:37:00;;;;;;;3.80;1.17;;;;;;;10.24;85.88;96800.66;4337471;33;20073;-84
2024/01/03 08:39:27;;;;;;;3.53;1.20;;;;;;;10.07;87.14;96805.06;4336425;33;20155;-85
2024/01/03 08:41:54;;;;;;;3.20;1.00;;;;;;;10.17;87.16;96809.66;4336929;33;20114;-84
2024/01/03 08:44:21;;;;;;;3.20;1.15;;;;;;;10.31;86.34;96807.09;4335551;33;20179;-84
2024/01/03 08:46:48;;;;;;;2.58;1.08;;;;;;;10.30;86.07;96811.41;4336817;33;20159;-84
2024/01/03 08:49:15;;;;;;;;;;;;;;;10.25;85.80;96815.22;4336870;33;20091;-84
2024/01/03 08:51:46;;;;;;;1.77;0.80;;;;;;;10.14;86.58;96819.22;4337290;33;20280;-84
2024/01/03 08:54:14;;;;;;;2.83;1.08;;;;;;;10.21;86.22;96813.69;4336281;33;20119;-84
2024/01/03 08:56:42;;;;;;;5.68;1.40;;;;;;;10.02;87.12;96819.97;4337924;33;20420;-84
2024/01/03 08:59:09;;;;;;;4.22;1.20;;;;;;;10.24;86.43;96822.13;4337044;33;20765;-84
2024/01/03 09:01:36;;;;;;;3.42;1.35;;;;;;;10.22;87.24;96833.44;4336223;33;20112;-84
2024/01/03 09:04:03;;;;;;;4.05;1.40;;;;;;;10.56;86.50;96838.19;4337313;33;20111;-84
2024/01/03 09:06:35;;;;;;;3.62;1.30;;;;;;;11.38;83.21;96832.13;4337442;33;20162;-84
2024/01/03 09:09:02;;;;;;;4.53;1.50;;;;;;;12.21;79.33;96832.59;4337328;33;20084;-84
2024/01/03 09:11:29;;;;;;;3.95;1.25;;;;;;;12.93;75.50;96827.56;4337733;33;20179;-85
2024/01/03 09:13:57;;;;;;;3.40;1.05;;;;;;;13.25;73.51;96830.47;4338103;33;20116;-84
2024/01/03 09:16:30;;;;;;;3.55;1.25;;;;;;;13.10;73.59;96841.91;4336984;33;20111;-85
2024/01/03 09:18:57;;;;;;;3.78;1.30;;;;;;;13.36;72.49;96829.69;4338037;33;20084;-85
2024/01/03 09:21:26;;;;;;;7.40;1.40;;;;;;;13.42;72.19;96826.66;4338025;33;20084;-85
2024/01/03 09:23:53;;;;;;;4.32;1.27;;;;;;;13.60;71.97;96836.47;4337451;33;20103;-85
2024/01/03 09:26:21;;;;;;;1.20;0.90;;;;;;;13.54;71.22;96844.69;4337616;33;20111;-85
2024/01/03 09:28:48;;;;;;;3.87;1.20;;;;;;;13.87;70.15;96850.91;4338404;33;20160;-85
2024/01/03 09:31:16;;;;;;;4.07;1.05;;;;;;;13.73;69.69;96849.34;4336460;33;20063;-85
2024/01/03 09:33:43;;;;;;;2.15;1.05;;;;;;;13.87;69.35;96867.28;4338300;33;20084;-85
2024/01/03 09:36:19;;;;;;;2.40;1.02;;;;;;;13.96;70.00;96847.63;4337714;33;20095;-85
2024/01/03 09:38:53;;;;;;;2.67;1.17;;;;;;;13.99;69.11;96850.00;4339164;33;20056;-85
2024/01/03 09:41:20;;;;;;;2.42;1.20;;;;;;;14.35;67.86;96859.31;4338485;33;20098;-85
2024/01/03 09:43:48;;;;;;;3.53;1.15;;;;;;;14.41;67.87;96845.06;4338888;33;20083;-85
2024/01/03 09:46:15;;;;;;;2.33;1.12;;;;;;;14.19;66.52;96836.34;4337588;33;20108;-85
2024/01/03 09:48:44;;;;;;;3.72;1.10;;;;;;;14.29;66.87;96827.84;4338360;33;20088;-85
2024/01/03 09:51:11;;;;;;;2.40;1.10;;;;;;;14.24;67.05;96832.56;4337712;33;20092;-84
2024/01/03 09:53:40;;;;;;;4.65;1.20;;;;;;;14.46;67.37;96827.38;4339013;33;20740;-84
2024/01/03 09:56:07;;;;;;;3.72;1.30;;;;;;;14.55;66.69;96834.47;4338764;33;20176;-84
2024/01/03 09:58:34;;;;;;;3.03;1.10;;;;;;;14.53;66.59;96818.19;4338031;33;20165;-85
2024/01/03 10:01:04;;;;;;;2.60;1.05;;;;;;;14.60;66.09;96819.38;4341932;33;20156;-85
2024/01/03 10:03:31;;;;;;;3.40;1.20;;;;;;;14.77;65.18;96839.63;4341909;33;20095;-85
2024/01/03 10:06:10;;;;;;;3.08;1.30;;;;;;;15.03;65.04;96834.97;4342177;33;20662;-85
2024/01/03 10:09:14;;;;;;;2.37;1.02;;;;;;;14.71;64.93;96829.75;4342588;33;20154;-85
2024/01/03 10:11:41;;;;;;;2.00;1.10;;;;;;;14.98;64.53;96831.91;4337217;33;20056;-84
2024/01/03 10:14:18;;;;;;;2.65;1.00;;;;;;;14.65;65.89;96824.19;4338548;33;20103;-84
2024/01/03 10:16:48;;;;;;;3.08;1.08;;;;;;;14.71;65.87;96826.31;4337620;33;20101;-84
2024/01/03 10:19:18;;;;;;;2.95;1.23;;;;;;;14.93;65.41;96830.63;4341133;33;20091;-85
2024/01/03 10:21:54;;;;;;;3.58;1.70;;;;;;;14.69;64.68;96833.41;4341080;33;20071;-84
2024/01/03 10:24:24;;;;;;;2.50;1.12;;;;;;;14.57;66.14;96840.38;4339602;33;20167;-85
2024/01/03 10:26:52;;;;;;;2.05;1.20;;;;;;;13.84;69.08;96838.19;4338284;33;20099;-84
2024/01/03 10:29:20;;;;;;;5.68;1.20;;;;;;;13.70;69.88;96843.56;4340675;33;20088;-85
2024/01/03 10:31:48;;;;;;;2.47;1.00;;;;;;;13.31;70.61;96861.09;4340559;33;20078;-85
2024/01/03 10:34:22;;;;;;;4.37;1.05;;;;;;;13.14;71.23;96851.91;4341531;33;20447;-84
2024/01/03 10:36:52;;;;;;;3.35;1.05;;;;;;;12.93;72.72;96859.47;4338027;33;20072;-85
2024/01/03 10:39:20;;;;;;;2.40;0.98;;;;;;;13.18;72.56;96849.94;4349839;33;20102;-85
2024/01/03 10:41:47;;;;;;;2.62;1.10;;;;;;;13.24;72.41;96850.34;4352528;33;20499;-85
2024/01/03 10:44:16;;;;;;;2.17;1.08;;;;;;;12.81;73.78;96836.22;4342142;33;20096;-85
2024/01/03 10:46:44;;;;;;;2.70;1.10;;;;;;;13.16;74.20;96849.22;4339923;33;20080;-85
2024/01/03 10:49:11;;;;;;;2.60;1.02;;;;;;;13.44;72.58;96835.12;4343148;33;20067;-85
2024/01/03 10:51:40;;;;;;;1.55;0.90;;;;;;;13.51;72.30;96844.13;4345969;33;20096;-85
2024/01/03 10:54:13;;;;;;;2.72;1.20;;;;;;;13.63;71.79;96838.03;4344178;33;20119;-86
2024/01/03 10:56:52;;;;;;;1.95;0.90;;;;;;;13.68;71.67;96845.44;4344480;33;20056;-85
2024/01/03 10:59:25;;;;;;;2.45;1.10;;;;;;;13.54;72.84;96830.91;4345131;33;20124;-85
2024/01/03 11:02:01;;;;;;;3.95;1.30;;;;;;;13.39;71.97;96838.03;4340240;33;20080;-84
2024/01/03 11:04:48;;;;;;;2.40;1.02;;;;;;;13.44;72.86;96841.12;4339943;33;20084;-84
2024/01/03 11:07:24;;;;;;;2.15;0.95;;;;;;;13.39;73.84;96824.25;4341405;33;20061;-84
2024/01/03 11:09:51;;;;;;;2.50;1.20;;;;;;;13.40;72.98;96831.09;4343246;33;20103;-85
2024/01/03 11:12:18;;;;;;;2.70;1.10;;;;;;;13.25;73.51;96833.88;4342985;33;20091;-84
2024/01/03 11:14:45;;;;;;;3.95;1.20;;;;;;;13.35;73.85;96831.44;4343304;33;20163;-84
2024/01/03 11:17:12;;;;;;;4.95;1.40;;;;;;;13.35;72.99;96822.84;4342086;33;20068;-84
2024/01/03 11:19:39;;;;;;;3.58;1.25;;;;;;;13.51;72.56;96824.22;4342220;33;20103;-84
2024/01/03 11:22:06;;;;;;;1.67;1.08;;;;;;;13.55;72.24;96824.78;4344173;33;20111;-84
2024/01/03 11:24:33;;;;;;;2.80;1.02;;;;;;;13.53;71.84;96818.91;4344660;33;20147;-84
2024/01/03 11:27:06;;;;;;;4.72;1.50;;;;;;;13.58;72.22;96830.56;4342967;33;20092;-85
2024/01/03 11:29:36;;;;;;;2.67;1.02;;;;;;;13.41;72.51;96823.22;4344447;33;20071;-85
2024/01/03 11:32:09;;;;;;;3.08;1.10;;;;;;;13.55;72.07;96832.56;4344054;33;20078;-84
2024/01/03 11:34:49;;;;;;;1.62;0.90;;;;;;;13.85;71.23;96830.28;4356531;33;20481;-85
2024/01/03 11:37:18;;;;;;;1.90;0.73;;;;;;;13.74;71.43;96826.84;4347983;32;20074;-84
2024/01/03 11:39:47;;;;;;;2.42;1.00;;;;;;;13.88;69.55;96824.03;4348704;33;20056;-85
2024/01/03 11:42:20;;;;;;;2.62;1.00;;;;;;;14.18;69.10;96821.72;4349757;33;20111;-85
2024/01/03 11:45:19;;;;;;;4.00;0.98;;;;;;;14.08;68.75;96806.97;4347026;33;20091;-86
2024/01/03 11:47:48;;;;;;;2.05;0.70;;;;;;;14.29;67.50;96817.47;4344403;33;20092;-86